Time;durP1;ratioP1;P1;durP2;ratioP2;P2;SDS_P1;SDS_P2;PMS_P1;PMS_P2;Temp;Humidity;BMP_temperature;BMP_pressure;BME280_temperature;BME280_humidity;BME280_pressure;Samples;Min_cycle;Max_cycle;Signal;HPM_P1;HPM_P2
2022/04/08 00:01:23;;;;;;;2.00;1.20;;;7.70;99.90;;;;;;4998184;28;20185;-58
2022/04/08 00:03:49;;;;;;;1.87;1.40;;;7.70;99.90;;;;;;4998739;28;20283;-56
2022/04/08 00:06:15;;;;;;;3.43;1.20;;;7.70;99.90;;;;;;4995804;28;21001;-53
2022/04/08 00:08:41;;;;;;;1.87;1.33;;;7.60;99.90;;;;;;4996497;28;20439;-54
2022/04/08 00:11:07;;;;;;;2.33;1.53;;;7.60;99.90;;;;;;4994235;28;20432;-53
2022/04/08 00:13:33;;;;;;;3.60;1.40;;;7.60;99.90;;;;;;4996640;28;20570;-55
2022/04/08 00:15:58;;;;;;;4.43;1.70;;;7.60;99.90;;;;;;4998257;28;20188;-54
2022/04/08 00:18:24;;;;;;;1.73;1.40;;;7.50;99.90;;;;;;4997117;28;20810;-54
2022/04/08 00:20:49;;;;;;;9.07;1.70;;;7.50;99.90;;;;;;4997305;28;20561;-58
2022/04/08 00:23:16;;;;;;;4.40;1.20;;;7.50;99.90;;;;;;4999391;28;20322;-54
2022/04/08 00:25:41;;;;;;;2.07;1.37;;;7.40;99.90;;;;;;4994534;28;20650;-55
2022/04/08 00:28:07;;;;;;;5.40;2.10;;;7.40;99.90;;;;;;4998878;28;20514;-54
2022/04/08 00:30:33;;;;;;;7.00;1.80;;;7.40;99.90;;;;;;4998982;28;20180;-55
2022/04/08 00:32:59;;;;;;;4.40;1.80;;;7.40;99.90;;;;;;4999400;28;20290;-53
2022/04/08 00:35:25;;;;;;;5.93;1.60;;;7.30;99.90;;;;;;4998535;28;20188;-54
2022/04/08 00:37:51;;;;;;;5.80;1.83;;;7.30;99.90;;;;;;4997415;28;20548;-57
2022/04/08 00:40:17;;;;;;;3.27;1.60;;;7.30;99.90;;;;;;4995329;28;20427;-54
2022/04/08 00:42:43;;;;;;;4.57;2.00;;;7.20;99.90;;;;;;4996570;28;20599;-51
2022/04/08 00:45:09;;;;;;;2.57;1.60;;;7.20;99.90;;;;;;4995088;28;20436;-54
2022/04/08 00:47:37;;;;;;;2.53;1.30;;;7.20;99.90;;;;;;5000952;28;20176;-56
2022/04/08 00:50:04;;;;;;;3.50;2.00;;;7.20;99.90;;;;;;5000133;28;20869;-55
2022/04/08 00:52:33;;;;;;;7.90;1.90;;;7.10;99.90;;;;;;5000722;28;20423;-54
2022/04/08 00:55:04;;;;;;;4.27;1.70;;;7.10;99.90;;;;;;4999565;28;20450;-54
2022/04/08 00:57:31;;;;;;;8.80;1.83;;;7.10;99.90;;;;;;4993733;28;20952;-54
2022/04/08 00:59:57;;;;;;;4.10;1.80;;;7.00;99.90;;;;;;4993070;28;20515;-55
2022/04/08 01:02:25;;;;;;;4.03;2.13;;;7.00;99.90;;;;;;4996905;28;20466;-55
2022/04/08 01:04:50;;;;;;;4.83;2.10;;;6.90;99.90;;;;;;4995659;28;20432;-56
2022/04/08 01:07:16;;;;;;;8.93;2.10;;;6.90;99.90;;;;;;4998939;28;20496;-57
2022/04/08 01:09:42;;;;;;;5.07;1.70;;;6.90;99.90;;;;;;4997782;28;20180;-53
2022/04/08 01:12:08;;;;;;;9.10;1.87;;;6.80;99.90;;;;;;5000663;28;20875;-54
2022/04/08 01:14:37;;;;;;;4.03;2.00;;;6.80;99.90;;;;;;5000419;28;20201;-54
2022/04/08 01:17:03;;;;;;;3.03;1.57;;;6.80;99.90;;;;;;4996641;28;20435;-54
2022/04/08 01:19:29;;;;;;;8.23;1.83;;;6.80;99.90;;;;;;5001993;28;20485;-57
2022/04/08 01:21:55;;;;;;;4.33;1.50;;;6.80;99.90;;;;;;4999631;28;20200;-58
2022/04/08 01:24:23;;;;;;;3.70;1.90;;;6.80;99.90;;;;;;4997731;28;20594;-55
2022/04/08 01:26:51;;;;;;;5.30;1.80;;;6.80;99.90;;;;;;4997755;28;20435;-54
2022/04/08 01:29:17;;;;;;;11.23;1.80;;;6.70;99.90;;;;;;4998575;28;20905;-57
2022/04/08 01:31:45;;;;;;;4.67;1.83;;;6.70;99.90;;;;;;4999471;28;20446;-54
2022/04/08 01:34:10;;;;;;;3.80;1.70;;;6.70;99.90;;;;;;4997051;28;20435;-57
2022/04/08 01:36:37;;;;;;;4.70;1.90;;;6.70;99.90;;;;;;5000654;28;20529;-56
2022/04/08 01:39:03;;;;;;;4.60;1.67;;;6.70;99.90;;;;;;4996596;28;20184;-53
2022/04/08 01:41:31;;;;;;;9.27;2.20;;;6.70;99.90;;;;;;4998490;28;20465;-61
2022/04/08 01:43:59;;;;;;;2.20;1.70;;;6.70;99.90;;;;;;4995859;28;20463;-55
2022/04/08 01:46:25;;;;;;;3.03;1.77;;;6.80;99.90;;;;;;4996527;28;21127;-54
2022/04/08 01:48:55;;;;;;;4.37;1.50;;;6.80;99.90;;;;;;5004498;28;20423;-53
2022/04/08 01:51:24;;;;;;;7.50;1.90;;;6.80;99.90;;;;;;5000425;28;20169;-56
2022/04/08 01:53:50;;;;;;;6.87;1.67;;;6.80;99.90;;;;;;5000720;28;20478;-56
2022/04/08 01:56:15;;;;;;;1.60;1.20;;;6.80;99.90;;;;;;5001783;28;20434;-54
2022/04/08 01:58:41;;;;;;;4.70;2.00;;;6.80;99.90;;;;;;5004236;28;20439;-53
2022/04/08 02:01:06;;;;;;;2.00;1.53;;;6.70;99.90;;;;;;4998001;28;20726;-54
2022/04/08 02:03:33;;;;;;;3.23;1.20;;;6.80;99.90;;;;;;4995106;28;20218;-55
2022/04/08 02:05:59;;;;;;;4.40;1.80;;;6.80;99.90;;;;;;4993212;28;20169;-55
2022/04/08 02:08:24;;;;;;;5.43;1.93;;;6.80;99.90;;;;;;4997015;28;20439;-53
2022/04/08 02:10:53;;;;;;;4.50;1.60;;;6.80;99.90;;;;;;4996518;28;20518;-56
2022/04/08 02:13:22;;;;;;;4.30;1.63;;;6.80;99.90;;;;;;4995400;28;20295;-55
2022/04/08 02:15:48;;;;;;;4.10;1.87;;;6.80;99.90;;;;;;4994608;28;20430;-56
2022/04/08 02:18:14;;;;;;;3.23;1.80;;;6.80;99.90;;;;;;4979381;28;20427;-57
2022/04/08 02:20:41;;;;;;;4.57;1.40;;;6.70;99.90;;;;;;4992964;28;20193;-56
2022/04/08 02:23:07;;;;;;;2.83;1.83;;;6.80;99.90;;;;;;4998022;28;20486;-53
2022/04/08 02:25:33;;;;;;;5.80;2.20;;;6.80;99.90;;;;;;4996398;28;20497;-56
2022/04/08 02:27:59;;;;;;;5.93;1.77;;;6.80;99.90;;;;;;4999672;28;20435;-55
2022/04/08 02:30:25;;;;;;;4.50;1.30;;;6.80;99.90;;;;;;5003453;28;20485;-56
2022/04/08 02:32:50;;;;;;;3.10;1.73;;;6.80;99.90;;;;;;5003557;28;20475;-57
2022/04/08 02:35:16;;;;;;;3.90;1.90;;;6.80;99.90;;;;;;5007084;28;20203;-58
2022/04/08 02:37:42;;;;;;;3.43;1.43;;;6.80;99.90;;;;;;5005212;28;20661;-54
2022/04/08 02:40:08;;;;;;;4.20;2.10;;;6.80;99.90;;;;;;4999948;28;20776;-54
2022/04/08 02:42:34;;;;;;;12.23;1.87;;;6.70;99.90;;;;;;4983065;28;20211;-54
2022/04/08 02:45:00;;;;;;;5.37;1.60;;;6.70;99.90;;;;;;4998949;28;20539;-54
2022/04/08 02:47:25;;;;;;;8.20;2.03;;;6.70;99.90;;;;;;4999505;28;20184;-55
2022/04/08 02:49:51;;;;;;;15.07;2.13;;;6.70;99.90;;;;;;4996487;28;20216;-54
2022/04/08 02:52:17;;;;;;;9.70;1.67;;;6.70;99.90;;;;;;4999924;28;20239;-56
2022/04/08 02:54:42;;;;;;;11.33;2.00;;;6.80;99.90;;;;;;5000808;28;20204;-55
2022/04/08 02:57:08;;;;;;;3.90;1.70;;;6.70;99.90;;;;;;4988664;28;20598;-54
2022/04/08 02:59:34;;;;;;;6.03;2.10;;;6.70;99.90;;;;;;4999441;28;20255;-58
2022/04/08 03:01:59;;;;;;;5.97;1.87;;;6.70;99.90;;;;;;5003705;28;20200;-57
2022/04/08 03:04:25;;;;;;;3.57;1.90;;;6.70;99.90;;;;;;5006851;28;20751;-54
2022/04/08 03:06:52;;;;;;;4.17;1.77;;;6.70;99.90;;;;;;5008276;28;20214;-54
2022/04/08 03:09:18;;;;;;;5.10;2.10;;;6.70;99.90;;;;;;5000758;28;20520;-55
2022/04/08 03:11:44;;;;;;;6.20;3.03;;;6.70;99.90;;;;;;5004544;28;20851;-56
2022/04/08 03:14:09;;;;;;;2.33;1.80;;;6.70;99.90;;;;;;5000595;28;20223;-52
2022/04/08 03:16:35;;;;;;;2.23;1.60;;;6.70;99.90;;;;;;5000010;28;20259;-52
2022/04/08 03:19:01;;;;;;;6.50;1.60;;;6.60;99.90;;;;;;5003212;28;20553;-54
2022/04/08 03:21:27;;;;;;;2.60;1.67;;;6.60;99.90;;;;;;5002552;28;20254;-57
2022/04/08 03:23:53;;;;;;;3.17;1.73;;;6.60;99.90;;;;;;5005031;28;20215;-55
2022/04/08 03:26:19;;;;;;;7.90;1.93;;;6.60;99.90;;;;;;5004638;28;20445;-52
2022/04/08 03:28:46;;;;;;;5.13;2.00;;;6.60;99.90;;;;;;5004012;28;20503;-54
2022/04/08 03:31:11;;;;;;;6.33;2.00;;;6.60;99.90;;;;;;5003707;28;20172;-56
2022/04/08 03:33:38;;;;;;;3.40;2.00;;;6.60;99.90;;;;;;4998113;28;20547;-55
2022/04/08 03:36:07;;;;;;;2.83;2.07;;;6.60;99.90;;;;;;5000355;28;20180;-55
2022/04/08 03:38:33;;;;;;;2.60;1.73;;;6.60;99.90;;;;;;5007698;28;20472;-56
2022/04/08 03:40:59;;;;;;;8.03;2.20;;;6.60;99.90;;;;;;5011814;28;20443;-56
2022/04/08 03:43:25;;;;;;;7.90;1.73;;;6.60;99.90;;;;;;4999548;28;20637;-53
2022/04/08 03:45:51;;;;;;;3.87;2.13;;;6.60;99.90;;;;;;4994456;28;20184;-54
2022/04/08 03:48:16;;;;;;;4.30;2.00;;;6.60;99.90;;;;;;4999343;28;20181;-55
2022/04/08 03:50:42;;;;;;;1.80;1.30;;;6.60;99.90;;;;;;4997550;28;20169;-56
2022/04/08 03:53:10;;;;;;;2.87;1.37;;;6.60;99.90;;;;;;4999212;28;20280;-57
2022/04/08 03:55:36;;;;;;;2.60;1.60;;;6.50;99.90;;;;;;4996294;28;20242;-58
2022/04/08 03:58:01;;;;;;;6.90;2.27;;;6.50;99.90;;;;;;4995441;28;20896;-56
2022/04/08 04:00:27;;;;;;;10.27;2.67;;;6.50;99.90;;;;;;4996790;28;20188;-58
2022/04/08 04:02:53;;;;;;;3.60;1.30;;;6.60;99.90;;;;;;4997675;28;20224;-58
2022/04/08 04:05:19;;;;;;;3.37;2.10;;;6.60;99.90;;;;;;5002889;28;20256;-54
2022/04/08 04:07:44;;;;;;;2.00;1.63;;;6.60;99.90;;;;;;4999974;28;20663;-54
2022/04/08 04:10:14;;;;;;;4.10;1.73;;;6.60;99.90;;;;;;4993477;28;20443;-58
2022/04/08 04:12:42;;;;;;;4.20;2.13;;;6.60;99.90;;;;;;4989756;28;20180;-56
2022/04/08 04:15:08;;;;;;;3.63;2.00;;;6.60;99.90;;;;;;4990342;28;20439;-55
2022/04/08 04:17:34;;;;;;;2.97;2.50;;;6.50;99.90;;;;;;4987918;28;20526;-57
2022/04/08 04:20:00;;;;;;;2.90;1.53;;;6.50;99.90;;;;;;4997404;28;20443;-56
2022/04/08 04:22:26;;;;;;;5.33;2.37;;;6.50;99.90;;;;;;4995025;28;21173;-59
2022/04/08 04:24:52;;;;;;;2.20;1.40;;;6.50;99.90;;;;;;4991256;28;20185;-56
2022/04/08 04:27:17;;;;;;;4.13;1.80;;;6.50;99.90;;;;;;4996160;28;20983;-55
2022/04/08 04:29:43;;;;;;;3.40;2.00;;;6.50;99.90;;;;;;4999535;28;20274;-57
2022/04/08 04:32:09;;;;;;;3.93;2.43;;;6.50;99.90;;;;;;4995891;28;20434;-59
2022/04/08 04:34:36;;;;;;;4.63;2.83;;;6.50;99.90;;;;;;4997765;28;20763;-55
2022/04/08 04:37:03;;;;;;;6.07;2.60;;;6.50;99.90;;;;;;4997212;28;20173;-58
2022/04/08 04:39:29;;;;;;;4.47;2.23;;;6.50;99.90;;;;;;4995962;28;21056;-57
2022/04/08 04:41:55;;;;;;;1.97;1.80;;;6.40;99.90;;;;;;4992253;28;20440;-55
2022/04/08 04:44:20;;;;;;;10.60;2.57;;;6.40;99.90;;;;;;4994254;28;20299;-57
2022/04/08 04:46:46;;;;;;;3.00;1.67;;;6.40;99.90;;;;;;4999239;28;20191;-56
2022/04/08 04:49:12;;;;;;;2.83;1.90;;;6.40;99.90;;;;;;4998731;28;20234;-57
2022/04/08 04:51:37;;;;;;;3.83;2.17;;;6.40;99.90;;;;;;4998530;28;20191;-58
2022/04/08 04:54:03;;;;;;;3.63;2.07;;;6.40;99.90;;;;;;4989530;28;20205;-56
2022/04/08 04:56:29;;;;;;;2.83;2.00;;;6.40;99.90;;;;;;5005479;28;20270;-53
2022/04/08 04:58:54;;;;;;;3.30;2.20;;;6.40;99.90;;;;;;4998327;28;20184;-56
2022/04/08 05:01:20;;;;;;;5.83;2.23;;;6.40;99.90;;;;;;5001572;28;20184;-54
2022/04/08 05:03:45;;;;;;;9.60;2.40;;;6.40;99.90;;;;;;5007746;28;20212;-54
2022/04/08 05:06:11;;;;;;;3.70;2.37;;;6.40;99.90;;;;;;5005844;28;20179;-52
2022/04/08 05:08:37;;;;;;;5.50;1.87;;;6.40;99.90;;;;;;5005237;28;20303;-53
2022/04/08 05:11:03;;;;;;;3.80;2.03;;;6.40;99.90;;;;;;5006494;28;20181;-55
2022/04/08 05:13:28;;;;;;;3.87;1.80;;;6.40;99.90;;;;;;4995633;28;20284;-54
2022/04/08 05:15:54;;;;;;;2.63;1.50;;;6.40;99.90;;;;;;4999955;28;20188;-52
2022/04/08 05:18:19;;;;;;;2.53;2.13;;;6.40;99.90;;;;;;5001990;28;20180;-54
2022/04/08 05:20:45;;;;;;;4.50;2.30;;;6.40;99.90;;;;;;4999361;28;20184;-56
2022/04/08 05:23:11;;;;;;;3.40;1.80;;;6.40;99.90;;;;;;4982702;28;20220;-55
2022/04/08 05:25:36;;;;;;;4.10;2.17;;;6.40;99.90;;;;;;5006395;28;20177;-55
2022/04/08 05:28:02;;;;;;;2.80;2.27;;;6.40;99.90;;;;;;5001840;28;20200;-53
2022/04/08 05:30:28;;;;;;;8.67;2.00;;;6.40;99.90;;;;;;5002351;28;20211;-53
2022/04/08 05:32:55;;;;;;;6.30;2.20;;;6.40;99.90;;;;;;5000014;28;20266;-58
2022/04/08 05:35:21;;;;;;;9.27;2.70;;;6.40;99.90;;;;;;5003086;28;21991;-54
2022/04/08 05:37:48;;;;;;;9.20;2.90;;;6.40;99.90;;;;;;5009242;28;20431;-55
2022/04/08 05:40:14;;;;;;;5.27;2.70;;;6.40;99.90;;;;;;4994533;28;20447;-54
2022/04/08 05:42:42;;;;;;;6.80;3.27;;;6.50;99.90;;;;;;5004483;28;20455;-52
2022/04/08 05:45:09;;;;;;;4.80;3.50;;;6.50;99.90;;;;;;5004260;28;20427;-54
2022/04/08 05:47:35;;;;;;;6.33;3.20;;;6.50;99.90;;;;;;5005232;28;20464;-55
2022/04/08 05:50:01;;;;;;;4.80;3.50;;;6.50;99.90;;;;;;5003685;28;20528;-53
2022/04/08 05:52:27;;;;;;;5.93;3.37;;;6.50;99.90;;;;;;5010081;28;20434;-51
2022/04/08 05:54:52;;;;;;;6.00;3.20;;;6.60;99.90;;;;;;5010053;28;20427;-56
2022/04/08 05:57:19;;;;;;;4.23;2.70;;;6.60;99.90;;;;;;5004766;28;20204;-54
2022/04/08 05:59:46;;;;;;;6.37;3.13;;;6.60;99.90;;;;;;5018657;28;20184;-56
2022/04/08 06:02:11;;;;;;;4.40;2.90;;;6.60;99.90;;;;;;5021166;28;20454;-56
2022/04/08 06:04:37;;;;;;;4.97;2.83;;;6.60;99.90;;;;;;5009727;28;20587;-57
2022/04/08 06:07:02;;;;;;;3.90;2.70;;;6.60;99.90;;;;;;5011455;28;20260;-56
2022/04/08 06:09:28;;;;;;;8.73;3.20;;;6.70;99.90;;;;;;5002849;28;20181;-56
2022/04/08 06:11:54;;;;;;;7.50;3.10;;;6.70;99.90;;;;;;5010826;28;20665;-56
2022/04/08 06:14:20;;;;;;;5.40;3.00;;;6.70;99.90;;;;;;5010791;28;20204;-55
2022/04/08 06:16:45;;;;;;;5.73;3.40;;;6.70;99.90;;;;;;5014947;28;20616;-58
2022/04/08 06:19:11;;;;;;;6.13;3.30;;;6.70;99.90;;;;;;5025056;28;20653;-54
2022/04/08 06:21:36;;;;;;;6.17;3.50;;;6.80;99.90;;;;;;5014112;28;20167;-56
2022/04/08 06:24:02;;;;;;;4.20;2.63;;;6.80;99.90;;;;;;5015073;28;20262;-59
2022/04/08 06:26:28;;;;;;;4.77;3.10;;;6.80;99.90;;;;;;5011481;28;20188;-56
2022/04/08 06:28:53;;;;;;;6.10;2.87;;;6.90;99.90;;;;;;5006932;28;20184;-55
2022/04/08 06:31:19;;;;;;;15.50;3.20;;;6.90;99.90;;;;;;5011838;28;20298;-55
2022/04/08 06:33:44;;;;;;;3.13;2.17;;;6.90;99.90;;;;;;5011186;28;20212;-56
2022/04/08 06:36:10;;;;;;;5.53;2.40;;;6.90;99.90;;;;;;4998782;28;20319;-57
2022/04/08 06:38:36;;;;;;;4.40;2.60;;;6.90;99.90;;;;;;5013344;28;20188;-54
2022/04/08 06:41:02;;;;;;;5.80;3.40;;;7.00;99.90;;;;;;5025419;28;20176;-57
2022/04/08 06:43:27;;;;;;;7.93;3.83;;;6.90;99.90;;;;;;5024547;28;20672;-56
2022/04/08 06:45:54;;;;;;;9.83;3.80;;;7.00;99.90;;;;;;5010666;28;20431;-56
2022/04/08 06:48:20;;;;;;;8.90;3.47;;;7.00;99.90;;;;;;5019562;28;20176;-55
2022/04/08 06:50:45;;;;;;;3.20;2.70;;;7.10;99.90;;;;;;5008333;28;20434;-54
2022/04/08 06:53:11;;;;;;;5.03;2.50;;;7.10;99.90;;;;;;5007519;28;20212;-56
2022/04/08 06:55:37;;;;;;;3.53;1.90;;;7.10;99.90;;;;;;5017191;28;20223;-56
2022/04/08 06:58:03;;;;;;;7.70;2.40;;;7.10;99.90;;;;;;5009424;28;20188;-54
2022/04/08 07:00:31;;;;;;;6.30;2.87;;;7.20;99.90;;;;;;5003301;28;20184;-57
2022/04/08 07:02:57;;;;;;;7.77;3.70;;;7.20;99.90;;;;;;5002680;28;20558;-53
2022/04/08 07:05:25;;;;;;;2.40;2.00;;;7.20;99.90;;;;;;5007883;28;20514;-54
2022/04/08 07:07:51;;;;;;;4.40;2.83;;;7.20;99.90;;;;;;5005294;28;20195;-55
2022/04/08 07:10:16;;;;;;;2.87;2.20;;;7.30;99.90;;;;;;5008701;28;20819;-53
2022/04/08 07:12:42;;;;;;;9.00;3.03;;;7.30;99.90;;;;;;5003619;28;20455;-53
2022/04/08 07:15:09;;;;;;;6.90;3.00;;;7.30;99.90;;;;;;5004188;28;20259;-58
2022/04/08 07:17:36;;;;;;;4.03;1.90;;;7.40;99.90;;;;;;5006036;28;20274;-54
2022/04/08 07:20:04;;;;;;;2.33;1.90;;;7.40;99.90;;;;;;4983881;28;20506;-54
2022/04/08 07:22:30;;;;;;;3.30;1.90;;;7.40;99.90;;;;;;5004782;28;20816;-56
2022/04/08 07:24:56;;;;;;;1.60;1.50;;;7.40;99.90;;;;;;5010045;28;20482;-54
2022/04/08 07:27:22;;;;;;;7.60;2.00;;;7.50;99.90;;;;;;5011129;28;20435;-54
2022/04/08 07:29:49;;;;;;;3.00;2.17;;;7.60;99.90;;;;;;5024485;28;20175;-55
2022/04/08 07:32:21;;;;;;;4.60;2.67;;;7.70;99.90;;;;;;5007130;28;20291;-57
2022/04/08 07:34:48;;;;;;;4.50;2.77;;;7.70;99.90;;;;;;5008288;28;20485;-56
2022/04/08 07:37:14;;;;;;;4.53;2.20;;;7.70;99.90;;;;;;5007546;28;20964;-56
2022/04/08 07:39:42;;;;;;;3.00;2.17;;;7.70;99.90;;;;;;5001237;28;20436;-52
2022/04/08 07:42:08;;;;;;;1.80;1.70;;;7.70;99.90;;;;;;5016968;28;20200;-52
2022/04/08 07:44:33;;;;;;;2.07;1.73;;;7.70;99.90;;;;;;5019019;28;20542;-54
2022/04/08 07:46:59;;;;;;;2.60;1.80;;;7.70;99.90;;;;;;4997959;28;20181;-56
2022/04/08 07:49:25;;;;;;;5.60;2.23;;;7.70;99.90;;;;;;5007146;28;20619;-54
2022/04/08 07:51:50;;;;;;;4.33;1.90;;;7.70;99.90;;;;;;5013067;28;20238;-57
2022/04/08 07:54:16;;;;;;;4.93;2.23;;;7.80;99.90;;;;;;5014811;28;20203;-55
2022/04/08 07:56:42;;;;;;;2.13;1.93;;;7.90;99.90;;;;;;5014922;28;20200;-55
2022/04/08 07:59:07;;;;;;;3.87;2.30;;;7.90;99.90;;;;;;5007076;28;20181;-54
2022/04/08 08:01:33;;;;;;;2.27;2.03;;;8.00;99.90;;;;;;5008923;28;20191;-56
2022/04/08 08:03:59;;;;;;;2.77;2.47;;;8.00;99.90;;;;;;5006344;28;20826;-53
2022/04/08 08:06:25;;;;;;;2.07;1.87;;;8.10;99.90;;;;;;5010357;28;20196;-54
2022/04/08 08:08:50;;;;;;;5.93;2.30;;;8.10;99.90;;;;;;5012439;28;20431;-54
2022/04/08 08:11:18;;;;;;;3.20;2.57;;;8.10;99.90;;;;;;5007838;28;20208;-57
2022/04/08 08:13:44;;;;;;;2.87;2.17;;;8.10;99.90;;;;;;5007666;28;20223;-57
2022/04/08 08:16:09;;;;;;;3.43;2.80;;;8.10;99.90;;;;;;5005896;28;20431;-55
2022/04/08 08:18:35;;;;;;;1.90;1.50;;;8.20;99.90;;;;;;5010333;28;20188;-55
2022/04/08 08:21:01;;;;;;;1.87;1.60;;;8.20;99.90;;;;;;5010009;28;20180;-54
2022/04/08 08:23:27;;;;;;;1.57;1.47;;;8.20;99.90;;;;;;5003553;28;20226;-55
2022/04/08 08:25:53;;;;;;;1.93;1.43;;;8.20;99.90;;;;;;5007917;28;20435;-56
2022/04/08 08:28:19;;;;;;;1.70;1.53;;;8.20;99.90;;;;;;5013727;28;20441;-56
2022/04/08 08:30:45;;;;;;;1.43;1.33;;;8.20;99.90;;;;;;5007284;28;20912;-55
2022/04/08 08:33:11;;;;;;;2.17;1.50;;;8.30;99.90;;;;;;5010840;28;20601;-56
2022/04/08 08:35:37;;;;;;;1.60;1.50;;;8.40;99.90;;;;;;5010062;28;20431;-56
2022/04/08 08:38:03;;;;;;;1.40;1.30;;;8.40;99.90;;;;;;5006372;28;20263;-55
2022/04/08 08:40:33;;;;;;;1.30;1.20;;;8.50;99.90;;;;;;5008113;28;20537;-58
2022/04/08 08:43:03;;;;;;;1.53;1.27;;;8.60;99.90;;;;;;5004104;28;20502;-56
2022/04/08 08:45:32;;;;;;;1.87;1.20;;;8.70;99.90;;;;;;4996209;28;20506;-56
2022/04/08 08:48:03;;;;;;;1.40;1.20;;;8.80;99.90;;;;;;5042570;22;20504;-58
2022/04/08 08:50:30;;;;;;;1.20;1.10;;;8.90;99.90;;;;;;5045279;28;20445;-58
2022/04/08 08:52:57;;;;;;;1.20;1.10;;;8.90;99.90;;;;;;5042886;28;20425;-58
2022/04/08 08:55:24;;;;;;;1.20;1.10;;;8.90;99.90;;;;;;5043969;28;20953;-58
2022/04/08 08:57:51;;;;;;;1.50;1.40;;;8.90;99.90;;;;;;5043165;28;20510;-58
2022/04/08 09:00:18;;;;;;;2.50;1.40;;;8.90;99.90;;;;;;5015662;28;20979;-57
2022/04/08 09:02:48;;;;;;;1.00;1.00;;;8.90;99.90;;;;;;5035270;28;20462;-59
2022/04/08 09:05:23;;;;;;;1.30;1.20;;;8.90;99.90;;;;;;5026729;28;20964;-58
2022/04/08 09:07:59;;;;;;;1.30;1.10;;;9.00;99.90;;;;;;5034295;28;20511;-61
2022/04/08 09:10:31;;;;;;;1.20;1.10;;;9.00;99.90;;;;;;5038906;28;21144;-58
2022/04/08 09:12:58;;;;;;;1.20;1.10;;;9.10;99.90;;;;;;5030726;28;20426;-58
2022/04/08 09:15:24;;;;;;;1.30;1.20;;;9.20;99.90;;;;;;5024427;28;20418;-58
2022/04/08 09:17:50;;;;;;;1.00;1.00;;;9.20;99.90;;;;;;5019941;28;20614;-59
2022/04/08 09:20:16;;;;;;;1.33;1.10;;;9.10;99.90;;;;;;5028231;28;20939;-59
2022/04/08 09:22:43;;;;;;;1.57;1.47;;;9.10;99.90;;;;;;5029234;28;20464;-59
2022/04/08 09:25:12;;;;;;;0.90;0.90;;;9.00;99.90;;;;;;5034411;28;20369;-59
2022/04/08 09:27:40;;;;;;;1.00;1.00;;;8.90;99.90;;;;;;5023485;28;20434;-59
2022/04/08 09:30:08;;;;;;;1.00;1.00;;;8.80;99.90;;;;;;5045245;28;20927;-59
2022/04/08 09:32:35;;;;;;;2.43;1.10;;;8.70;99.90;;;;;;5027638;28;20480;-59
2022/04/08 09:35:00;;;;;;;1.10;1.00;;;8.70;99.90;;;;;;5031282;28;20430;-59
2022/04/08 09:37:26;;;;;;;1.70;1.00;;;8.70;99.90;;;;;;5026134;28;20423;-59
2022/04/08 09:40:00;;;;;;;1.53;1.00;;;8.60;99.90;;;;;;5033312;28;20418;-58
2022/04/08 09:42:46;;;;;;;1.00;1.00;;;8.60;99.90;;;;;;5031492;28;20231;-59
2022/04/08 09:45:14;;;;;;;1.60;1.50;;;8.60;99.90;;;;;;5012673;28;20457;-59
2022/04/08 09:47:40;;;;;;;1.77;1.67;;;8.60;99.90;;;;;;5031432;28;20434;-59
2022/04/08 09:50:10;;;;;;;1.20;1.10;;;8.50;99.90;;;;;;5029800;28;20876;-58
2022/04/08 09:52:39;;;;;;;1.63;1.10;;;8.50;99.90;;;;;;5028081;28;20524;-58
2022/04/08 09:55:07;;;;;;;1.30;1.20;;;8.50;99.90;;;;;;5028030;28;20450;-58
2022/04/08 09:57:37;;;;;;;1.73;1.30;;;8.50;99.90;;;;;;5028682;28;20425;-58
2022/04/08 10:00:04;;;;;;;1.53;1.10;;;8.50;99.90;;;;;;5019966;28;20423;-58
2022/04/08 10:02:33;;;;;;;1.37;1.13;;;8.50;99.90;;;;;;5027327;28;20482;-58
2022/04/08 10:05:01;;;;;;;1.77;1.17;;;8.50;99.90;;;;;;5030771;28;20523;-58
2022/04/08 10:07:27;;;;;;;1.43;1.30;;;8.50;99.90;;;;;;5033793;28;20453;-59
2022/04/08 10:10:30;;;;;;;1.10;1.00;;;8.50;99.90;;;;;;5027637;28;20436;-58
2022/04/08 10:13:05;;;;;;;1.77;1.17;;;8.50;99.90;;;;;;5031443;28;21081;-59
2022/04/08 10:15:49;;;;;;;1.03;0.97;;;8.60;99.90;;;;;;5020667;28;20491;-59
2022/04/08 10:18:15;;;;;;;1.30;1.20;;;8.60;99.90;;;;;;5024867;28;20812;-61
2022/04/08 10:20:41;;;;;;;1.40;1.30;;;8.70;99.90;;;;;;5006296;28;20580;-60
2022/04/08 10:23:11;;;;;;;1.40;1.30;;;8.70;99.90;;;;;;5025872;28;20196;-59
2022/04/08 10:25:42;;;;;;;1.13;1.10;;;8.80;99.90;;;;;;5019055;28;20175;-60
2022/04/08 10:28:10;;;;;;;1.00;1.00;;;8.90;99.90;;;;;;5026652;28;20462;-59
2022/04/08 10:30:42;;;;;;;0.90;0.90;;;9.00;99.90;;;;;;5035325;28;20685;-59
2022/04/08 10:33:08;;;;;;;1.00;1.00;;;9.10;99.90;;;;;;5017109;28;20434;-60
2022/04/08 10:35:35;;;;;;;1.10;1.00;;;9.10;99.90;;;;;;5027563;28;20439;-59
2022/04/08 10:38:03;;;;;;;1.00;1.00;;;9.20;99.90;;;;;;5026881;28;20199;-59
2022/04/08 10:40:40;;;;;;;1.20;1.10;;;9.20;99.90;;;;;;5025809;28;20462;-59
2022/04/08 10:43:11;;;;;;;1.00;1.00;;;9.20;99.90;;;;;;5024925;28;20874;-59
2022/04/08 10:45:38;;;;;;;1.00;1.00;;;9.30;99.90;;;;;;5020708;28;20465;-60
2022/04/08 10:48:09;;;;;;;1.60;0.90;;;9.30;99.90;;;;;;5015888;28;20477;-59
2022/04/08 10:50:35;;;;;;;1.00;1.00;;;9.30;99.90;;;;;;5016334;28;20443;-56
2022/04/08 10:53:08;;;;;;;1.50;1.30;;;9.30;99.90;;;;;;5009472;28;20521;-59
2022/04/08 10:55:48;;;;;;;1.17;0.90;;;9.30;99.90;;;;;;5014416;28;20962;-61
2022/04/08 10:58:15;;;;;;;1.37;0.90;;;9.30;99.90;;;;;;5030950;28;20449;-59
2022/04/08 11:00:43;;;;;;;1.20;1.10;;;9.40;99.90;;;;;;5000126;28;21024;-61
2022/04/08 11:03:11;;;;;;;1.00;1.00;;;9.40;99.90;;;;;;5018739;28;20463;-61
2022/04/08 11:05:40;;;;;;;1.43;1.20;;;9.40;99.90;;;;;;5014799;28;21054;-60
2022/04/08 11:08:08;;;;;;;0.97;0.97;;;9.50;99.90;;;;;;5018822;28;20450;-60
2022/04/08 11:10:34;;;;;;;1.70;1.10;;;9.50;99.90;;;;;;5019207;28;20465;-59
2022/04/08 11:13:00;;;;;;;1.10;1.10;;;9.50;99.90;;;;;;5019140;28;20987;-60
2022/04/08 11:15:30;;;;;;;1.03;1.00;;;9.60;99.90;;;;;;5019458;28;20188;-60
2022/04/08 11:18:00;;;;;;;0.93;0.90;;;9.60;99.90;;;;;;5019971;28;20191;-59
2022/04/08 11:20:27;;;;;;;1.43;1.30;;;9.60;99.90;;;;;;5016852;28;20438;-59
2022/04/08 11:22:53;;;;;;;1.00;1.00;;;9.70;99.90;;;;;;5025464;28;20466;-61
2022/04/08 11:25:27;;;;;;;0.93;0.93;;;9.70;99.90;;;;;;5021894;28;20529;-59
2022/04/08 11:28:12;;;;;;;1.63;1.10;;;9.70;99.90;;;;;;5018466;28;20572;-59
2022/04/08 11:30:39;;;;;;;0.90;0.90;;;9.70;99.90;;;;;;5023020;28;20440;-60
2022/04/08 11:33:25;;;;;;;1.10;0.90;;;9.70;99.90;;;;;;5023561;28;20432;-57
2022/04/08 11:36:00;;;;;;;5.60;1.10;;;9.80;99.90;;;;;;5016586;28;21011;-58
2022/04/08 11:38:29;;;;;;;1.20;1.20;;;9.90;99.90;;;;;;5018601;28;20868;-57
2022/04/08 11:40:55;;;;;;;1.00;1.00;;;9.90;99.90;;;;;;5016239;28;20442;-56
2022/04/08 11:43:21;;;;;;;2.63;1.00;;;10.00;99.90;;;;;;5016399;28;21000;-60
2022/04/08 11:45:50;;;;;;;1.77;1.10;;;10.00;99.90;;;;;;5016031;28;20700;-59
2022/04/08 11:48:18;;;;;;;1.00;1.00;;;10.00;99.90;;;;;;5017103;28;20478;-58
2022/04/08 11:50:45;;;;;;;1.27;0.93;;;10.00;99.90;;;;;;5015318;28;20466;-57
2022/04/08 11:53:18;;;;;;;1.40;1.30;;;10.00;99.90;;;;;;5015537;28;20430;-58
2022/04/08 11:56:00;;;;;;;1.40;1.30;;;10.00;99.90;;;;;;5013619;28;20530;-59
2022/04/08 11:58:27;;;;;;;1.33;1.23;;;10.00;99.90;;;;;;5020258;28;20454;-58
2022/04/08 12:00:53;;;;;;;1.43;1.33;;;10.10;99.90;;;;;;5016748;28;20435;-58
2022/04/08 12:03:20;;;;;;;1.50;1.40;;;10.10;99.90;;;;;;5014720;28;20470;-58
2022/04/08 12:05:46;;;;;;;1.23;1.13;;;10.10;99.90;;;;;;5014308;28;20913;-58
2022/04/08 12:08:13;;;;;;;1.00;1.00;;;10.20;99.90;;;;;;5010518;28;20447;-58
2022/04/08 12:10:39;;;;;;;2.03;1.30;;;10.20;99.90;;;;;;5010592;28;20514;-59
2022/04/08 12:13:16;;;;;;;1.80;1.40;;;10.20;99.90;;;;;;5012128;28;21055;-62
2022/04/08 12:15:47;;;;;;;2.20;1.10;;;10.20;99.90;;;;;;5008677;28;20553;-58
2022/04/08 12:18:23;;;;;;;2.07;1.53;;;10.20;99.90;;;;;;5008360;28;20538;-59
2022/04/08 12:21:20;;;;;;;1.73;1.63;;;10.20;99.90;;;;;;5010451;28;20477;-59
2022/04/08 12:23:49;;;;;;;2.93;1.53;;;10.20;99.90;;;;;;5014289;28;20463;-58
2022/04/08 12:26:15;;;;;;;2.03;1.30;;;10.20;99.90;;;;;;5015413;28;20439;-59
2022/04/08 12:28:41;;;;;;;1.43;1.33;;;10.20;99.90;;;;;;5018997;28;20698;-59
2022/04/08 12:31:19;;;;;;;1.50;1.20;;;10.20;99.90;;;;;;5020153;28;21154;-58
2022/04/08 12:33:45;;;;;;;1.50;1.33;;;10.20;99.90;;;;;;5018243;28;20282;-58
2022/04/08 12:36:12;;;;;;;1.10;0.90;;;10.20;99.90;;;;;;5020244;28;20517;-59
2022/04/08 12:38:42;;;;;;;1.93;1.10;;;10.20;99.90;;;;;;5024946;28;20779;-59
2022/04/08 12:41:10;;;;;;;1.60;1.50;;;10.30;99.90;;;;;;5026993;28;20468;-59
2022/04/08 12:43:35;;;;;;;4.20;1.20;;;10.30;99.90;;;;;;5025780;28;20479;-59
2022/04/08 12:46:01;;;;;;;3.43;1.50;;;10.40;99.90;;;;;;5025398;28;20442;-59
2022/04/08 12:48:27;;;;;;;1.60;1.50;;;10.40;99.90;;;;;;5033672;28;20326;-59
2022/04/08 12:50:53;;;;;;;1.37;1.27;;;10.50;99.90;;;;;;5004865;28;20186;-58
2022/04/08 12:53:20;;;;;;;3.00;1.97;;;10.50;99.90;;;;;;5009719;28;20490;-58
2022/04/08 12:55:46;;;;;;;2.10;1.80;;;10.50;99.90;;;;;;5020377;28;20429;-59